sensor_id;sensor_type;location;lat;lon;timestamp;pressure;altitude;pressure_sealevel;temperature;humidity
7018;BME280;3549;42.162;24.726;2023-04-29T00:01:06;47588.28;;;-141.97;62.03
7018;BME280;3549;42.162;24.726;2023-04-29T00:03:31;47561.38;;;-141.97;62.38
7018;BME280;3549;42.162;24.726;2023-04-29T00:05:57;47576.75;;;-141.97;64.07
7018;BME280;3549;42.162;24.726;2023-04-29T00:08:23;47569.06;;;-141.97;65.77
7018;BME280;3549;42.162;24.726;2023-04-29T00:10:49;47553.69;;;-141.97;66.33
7018;BME280;3549;42.162;24.726;2023-04-29T00:13:14;47557.53;;;-141.97;67.82
7018;BME280;3549;42.162;24.726;2023-04-29T00:15:40;47542.16;;;-141.97;67.90
7018;BME280;3549;42.162;24.726;2023-04-29T00:18:06;47570.97;;;-141.97;67.81
7018;BME280;3549;42.162;24.726;2023-04-29T00:20:33;47559.44;;;-141.97;68.25
7018;BME280;3549;42.162;24.726;2023-04-29T00:22:59;47515.22;;;-141.97;68.56
7018;BME280;3549;42.162;24.726;2023-04-29T00:25:24;47557.53;;;-141.97;69.08
7018;BME280;3549;42.162;24.726;2023-04-29T00:27:50;47590.19;;;-141.97;69.53
7018;BME280;3549;42.162;24.726;2023-04-29T00:30:15;47570.97;;;-141.97;69.61
7018;BME280;3549;42.162;24.726;2023-04-29T00:32:41;47557.53;;;-141.97;69.53
7018;BME280;3549;42.162;24.726;2023-04-29T00:35:08;47565.22;;;-141.97;69.43
7018;BME280;3549;42.162;24.726;2023-04-29T00:37:33;47496.00;;;-141.97;69.03
7018;BME280;3549;42.162;24.726;2023-04-29T00:39:59;47553.69;;;-141.97;69.10
7018;BME280;3549;42.162;24.726;2023-04-29T00:42:24;47557.53;;;-141.97;67.99
7018;BME280;3549;42.162;24.726;2023-04-29T00:44:50;47582.50;;;-141.97;67.26
7018;BME280;3549;42.162;24.726;2023-04-29T00:47:15;47576.75;;;-141.97;67.09
7018;BME280;3549;42.162;24.726;2023-04-29T00:49:42;47578.66;;;-141.97;66.93
7018;BME280;3549;42.162;24.726;2023-04-29T00:52:10;47557.53;;;-141.97;66.95
7018;BME280;3549;42.162;24.726;2023-04-29T00:54:37;47546.00;;;-141.97;67.28
7018;BME280;3549;42.162;24.726;2023-04-29T00:57:03;47580.59;;;-141.97;67.21
7018;BME280;3549;42.162;24.726;2023-04-29T00:59:30;47592.13;;;-141.97;67.58
7018;BME280;3549;42.162;24.726;2023-04-29T01:02:02;47578.66;;;-141.97;69.42
7018;BME280;3549;42.162;24.726;2023-04-29T01:04:28;47557.53;;;-141.97;70.25
7018;BME280;3549;42.162;24.726;2023-04-29T01:17:53;47561.38;;;-141.97;75.96
7018;BME280;3549;42.162;24.726;2023-04-29T01:20:21;47569.06;;;-141.97;76.90
7018;BME280;3549;42.162;24.726;2023-04-29T01:22:48;47540.22;;;-141.97;77.79
7018;BME280;3549;42.162;24.726;2023-04-29T01:25:13;47588.28;;;-141.97;78.71
7018;BME280;3549;42.162;24.726;2023-04-29T01:30:33;47553.69;;;-141.97;77.92
7018;BME280;3549;42.162;24.726;2023-04-29T01:38:36;47557.53;;;-141.97;76.84
7018;BME280;3549;42.162;24.726;2023-04-29T01:41:12;47547.91;;;-141.97;77.38
7018;BME280;3549;42.162;24.726;2023-04-29T01:43:39;47555.59;;;-141.97;77.10
7018;BME280;3549;42.162;24.726;2023-04-29T01:46:08;47549.84;;;-141.97;78.00
7018;BME280;3549;42.162;24.726;2023-04-29T01:48:34;47557.53;;;-141.97;77.64
7018;BME280;3549;42.162;24.726;2023-04-29T01:51:01;47580.59;;;-141.97;77.73
7018;BME280;3549;42.162;24.726;2023-04-29T01:53:26;47519.06;;;-141.97;78.42
7018;BME280;3549;42.162;24.726;2023-04-29T01:55:51;47572.91;;;-141.97;78.45
7018;BME280;3549;42.162;24.726;2023-04-29T01:58:17;47578.66;;;-141.97;78.07
7018;BME280;3549;42.162;24.726;2023-04-29T02:00:42;47586.34;;;-141.97;78.59
7018;BME280;3549;42.162;24.726;2023-04-29T02:03:08;47695.91;;;-141.97;78.63
7018;BME280;3549;42.162;24.726;2023-04-29T02:05:34;47592.13;;;-141.97;78.13
7018;BME280;3549;42.162;24.726;2023-04-29T02:08:00;47588.28;;;-141.97;78.37
7018;BME280;3549;42.162;24.726;2023-04-29T02:10:26;47553.69;;;-141.97;77.85
7018;BME280;3549;42.162;24.726;2023-04-29T02:12:52;47611.34;;;-141.97;77.16
7018;BME280;3549;42.162;24.726;2023-04-29T02:15:18;47538.28;;;-141.97;76.70
7018;BME280;3549;42.162;24.726;2023-04-29T02:17:43;47592.13;;;-141.97;76.91
7018;BME280;3549;42.162;24.726;2023-04-29T02:20:09;47534.44;;;-141.97;76.34
7018;BME280;3549;42.162;24.726;2023-04-29T02:22:35;47505.63;;;-141.97;75.67
7018;BME280;3549;42.162;24.726;2023-04-29T02:25:01;47659.38;;;-141.97;75.50
7018;BME280;3549;42.162;24.726;2023-04-29T02:27:26;47592.13;;;-141.97;74.96
7018;BME280;3549;42.162;24.726;2023-04-29T02:29:51;47586.34;;;-141.97;75.52
7018;BME280;3549;42.162;24.726;2023-04-29T02:32:17;47521.00;;;-141.97;76.94
7018;BME280;3549;42.162;24.726;2023-04-29T02:34:45;47553.69;;;-141.97;77.62
7018;BME280;3549;42.162;24.726;2023-04-29T02:37:10;47584.44;;;-141.97;78.30
7018;BME280;3549;42.162;24.726;2023-04-29T02:39:35;47592.13;;;-141.97;78.44
7018;BME280;3549;42.162;24.726;2023-04-29T02:42:01;47561.38;;;-141.97;77.94
7018;BME280;3549;42.162;24.726;2023-04-29T02:44:27;47553.69;;;-141.97;77.11
7018;BME280;3549;42.162;24.726;2023-04-29T02:46:52;47592.13;;;-141.97;76.42
7018;BME280;3549;42.162;24.726;2023-04-29T02:49:18;47532.53;;;-141.97;76.58
7018;BME280;3549;42.162;24.726;2023-04-29T02:51:43;47546.00;;;-141.97;76.64
7018;BME280;3549;42.162;24.726;2023-04-29T02:54:09;47536.38;;;-141.97;77.06
7018;BME280;3549;42.162;24.726;2023-04-29T02:56:35;47588.28;;;-141.97;77.38
7018;BME280;3549;42.162;24.726;2023-04-29T02:59:01;47551.75;;;-141.97;77.32
7018;BME280;3549;42.162;24.726;2023-04-29T03:01:26;47567.13;;;-141.97;77.00
7018;BME280;3549;42.162;24.726;2023-04-29T03:03:52;47542.16;;;-141.97;76.66
7018;BME280;3549;42.162;24.726;2023-04-29T03:06:19;47582.50;;;-141.97;76.83
7018;BME280;3549;42.162;24.726;2023-04-29T03:08:44;47542.16;;;-141.97;78.31
7018;BME280;3549;42.162;24.726;2023-04-29T03:11:10;47647.84;;;-141.97;79.95
7018;BME280;3549;42.162;24.726;2023-04-29T03:13:36;47542.16;;;-141.97;80.49
7018;BME280;3549;42.162;24.726;2023-04-29T03:16:02;47569.06;;;-141.97;80.38
7018;BME280;3549;42.162;24.726;2023-04-29T03:18:28;47592.13;;;-141.97;80.19
7018;BME280;3549;42.162;24.726;2023-04-29T03:20:53;47590.19;;;-141.97;80.56
7018;BME280;3549;42.162;24.726;2023-04-29T03:23:19;47619.03;;;-141.97;79.90
7018;BME280;3549;42.162;24.726;2023-04-29T03:25:44;47580.59;;;-141.97;79.20
7018;BME280;3549;42.162;24.726;2023-04-29T03:28:09;47559.44;;;-141.97;79.32
7018;BME280;3549;42.162;24.726;2023-04-29T03:30:35;47544.06;;;-141.97;78.90
7018;BME280;3549;42.162;24.726;2023-04-29T03:33:00;47572.91;;;-141.97;79.53
7018;BME280;3549;42.162;24.726;2023-04-29T03:35:26;47578.66;;;-141.97;79.41
7018;BME280;3549;42.162;24.726;2023-04-29T03:37:51;47540.22;;;-141.97;79.26
7018;BME280;3549;42.162;24.726;2023-04-29T03:40:17;47594.03;;;-141.97;79.92
7018;BME280;3549;42.162;24.726;2023-04-29T03:42:43;47647.84;;;-141.97;79.31
7018;BME280;3549;42.162;24.726;2023-04-29T03:45:09;47526.75;;;-141.97;78.68
7018;BME280;3549;42.162;24.726;2023-04-29T03:47:37;47630.56;;;-141.97;78.81
7018;BME280;3549;42.162;24.726;2023-04-29T03:50:02;47549.84;;;-141.97;78.73
7018;BME280;3549;42.162;24.726;2023-04-29T03:52:28;47572.91;;;-141.97;78.75
7018;BME280;3549;42.162;24.726;2023-04-29T03:54:54;47584.44;;;-141.97;78.36
7018;BME280;3549;42.162;24.726;2023-04-29T03:57:19;47561.38;;;-141.97;78.80
7018;BME280;3549;42.162;24.726;2023-04-29T03:59:44;47580.59;;;-141.97;77.72
7018;BME280;3549;42.162;24.726;2023-04-29T04:02:14;47588.28;;;-141.97;76.80
7018;BME280;3549;42.162;24.726;2023-04-29T04:04:39;47565.22;;;-141.97;76.90
7018;BME280;3549;42.162;24.726;2023-04-29T04:07:05;47580.59;;;-141.97;76.62
7018;BME280;3549;42.162;24.726;2023-04-29T04:09:30;47603.66;;;-141.97;77.41
7018;BME280;3549;42.162;24.726;2023-04-29T04:11:57;47549.84;;;-141.97;77.30
7018;BME280;3549;42.162;24.726;2023-04-29T04:14:23;47595.97;;;-141.97;77.48
7018;BME280;3549;42.162;24.726;2023-04-29T04:16:48;47561.38;;;-141.97;77.59
7018;BME280;3549;42.162;24.726;2023-04-29T04:19:15;47574.81;;;-141.97;78.25
7018;BME280;3549;42.162;24.726;2023-04-29T04:21:41;47580.59;;;-141.97;77.49
7018;BME280;3549;42.162;24.726;2023-04-29T04:24:07;47595.97;;;-141.97;77.64
7018;BME280;3549;42.162;24.726;2023-04-29T04:26:32;47595.97;;;-141.97;77.84
7018;BME280;3549;42.162;24.726;2023-04-29T04:28:58;47553.69;;;-141.97;77.88
7018;BME280;3549;42.162;24.726;2023-04-29T04:31:23;47561.38;;;-141.97;78.51
7018;BME280;3549;42.162;24.726;2023-04-29T04:33:49;47599.81;;;-141.97;78.43
7018;BME280;3549;42.162;24.726;2023-04-29T04:36:15;47572.91;;;-141.97;77.79
7018;BME280;3549;42.162;24.726;2023-04-29T04:38:40;47574.81;;;-141.97;77.36
7018;BME280;3549;42.162;24.726;2023-04-29T04:41:06;47572.91;;;-141.97;76.48
7018;BME280;3549;42.162;24.726;2023-04-29T04:43:32;47570.97;;;-141.97;76.08
7018;BME280;3549;42.162;24.726;2023-04-29T04:45:57;47655.53;;;-141.97;76.09
7018;BME280;3549;42.162;24.726;2023-04-29T04:48:23;47534.44;;;-141.97;75.85
7018;BME280;3549;42.162;24.726;2023-04-29T04:50:48;47599.81;;;-141.97;75.10
7018;BME280;3549;42.162;24.726;2023-04-29T04:53:13;47565.22;;;-141.97;74.73
7018;BME280;3549;42.162;24.726;2023-04-29T04:55:39;47580.59;;;-141.97;74.62
7018;BME280;3549;42.162;24.726;2023-04-29T04:58:04;47626.72;;;-141.97;75.35
7018;BME280;3549;42.162;24.726;2023-04-29T05:00:30;47569.06;;;-141.97;75.36
7018;BME280;3549;42.162;24.726;2023-04-29T05:02:55;47574.81;;;-141.97;75.18
7018;BME280;3549;42.162;24.726;2023-04-29T05:05:21;47632.47;;;-141.97;74.34
7018;BME280;3549;42.162;24.726;2023-04-29T05:07:46;47580.59;;;-141.97;74.83
7018;BME280;3549;42.162;24.726;2023-04-29T05:10:12;47592.13;;;-141.97;75.20
7018;BME280;3549;42.162;24.726;2023-04-29T05:12:38;47563.28;;;-141.97;76.41
7018;BME280;3549;42.162;24.726;2023-04-29T05:15:03;47590.19;;;-141.97;75.87
7018;BME280;3549;42.162;24.726;2023-04-29T05:17:29;47569.06;;;-141.97;75.00
7018;BME280;3549;42.162;24.726;2023-04-29T05:19:54;47576.75;;;-141.97;74.88
7018;BME280;3549;42.162;24.726;2023-04-29T05:22:20;47572.91;;;-141.97;74.26
7018;BME280;3549;42.162;24.726;2023-04-29T05:24:45;47574.81;;;-141.97;74.58
7018;BME280;3549;42.162;24.726;2023-04-29T05:27:13;47567.13;;;-141.97;73.69
7018;BME280;3549;42.162;24.726;2023-04-29T05:29:38;47578.66;;;-141.97;72.70
7018;BME280;3549;42.162;24.726;2023-04-29T05:32:04;47605.56;;;-141.97;72.58
7018;BME280;3549;42.162;24.726;2023-04-29T05:34:29;47592.13;;;-141.97;71.95
7018;BME280;3549;42.162;24.726;2023-04-29T05:36:55;47605.56;;;-141.97;71.11
7018;BME280;3549;42.162;24.726;2023-04-29T05:39:21;47584.44;;;-141.97;70.46
7018;BME280;3549;42.162;24.726;2023-04-29T05:41:47;47605.56;;;-141.97;69.42
7018;BME280;3549;42.162;24.726;2023-04-29T05:44:12;47578.66;;;-141.97;68.16
7018;BME280;3549;42.162;24.726;2023-04-29T05:46:38;47592.13;;;-141.97;68.12
7018;BME280;3549;42.162;24.726;2023-04-29T05:49:03;47586.34;;;-141.97;67.03
7018;BME280;3549;42.162;24.726;2023-04-29T05:51:29;47588.28;;;-141.97;64.88
7018;BME280;3549;42.162;24.726;2023-04-29T05:53:56;47588.28;;;-141.97;61.92
7018;BME280;3549;42.162;24.726;2023-04-29T05:56:23;47592.13;;;-141.97;61.66
7018;BME280;3549;42.162;24.726;2023-04-29T05:58:48;47563.28;;;-141.97;61.92
7018;BME280;3549;42.162;24.726;2023-04-29T06:01:14;47582.50;;;-141.97;60.95
7018;BME280;3549;42.162;24.726;2023-04-29T06:03:41;47619.03;;;-141.97;60.32
7018;BME280;3549;42.162;24.726;2023-04-29T06:06:07;47615.19;;;-141.97;60.98
7018;BME280;3549;42.162;24.726;2023-04-29T06:08:33;47605.56;;;-141.97;60.94
7018;BME280;3549;42.162;24.726;2023-04-29T06:10:58;47569.06;;;-141.97;61.02
7018;BME280;3549;42.162;24.726;2023-04-29T06:13:24;47682.47;;;-141.97;59.93
7018;BME280;3549;42.162;24.726;2023-04-29T06:15:50;47557.53;;;-141.97;59.17
7018;BME280;3549;42.162;24.726;2023-04-29T06:18:15;47607.50;;;-141.97;58.17
7018;BME280;3549;42.162;24.726;2023-04-29T06:20:41;47534.44;;;-141.97;56.59
7018;BME280;3549;42.162;24.726;2023-04-29T06:23:06;47557.53;;;-141.97;55.23
7018;BME280;3549;42.162;24.726;2023-04-29T06:25:32;47538.28;;;-141.97;55.14
7018;BME280;3549;42.162;24.726;2023-04-29T06:27:58;47605.56;;;-141.97;54.95
7018;BME280;3549;42.162;24.726;2023-04-29T06:30:25;47584.44;;;-141.97;54.11
7018;BME280;3549;42.162;24.726;2023-04-29T06:32:50;47549.84;;;-141.97;53.98
7018;BME280;3549;42.162;24.726;2023-04-29T06:35:16;47569.06;;;-141.97;52.60
7018;BME280;3549;42.162;24.726;2023-04-29T06:37:41;47711.28;;;-141.97;52.17
7018;BME280;3549;42.162;24.726;2023-04-29T06:40:07;47674.78;;;-141.97;49.99
7018;BME280;3549;42.162;24.726;2023-04-29T06:42:32;47569.06;;;-141.97;49.52
7018;BME280;3549;42.162;24.726;2023-04-29T06:44:58;47653.63;;;-141.97;47.98
7018;BME280;3549;42.162;24.726;2023-04-29T06:47:23;47747.81;;;-141.97;48.84
7018;BME280;3549;42.162;24.726;2023-04-29T06:49:49;47592.13;;;-141.97;49.38
7018;BME280;3549;42.162;24.726;2023-04-29T06:52:14;47594.03;;;-141.97;48.99
7018;BME280;3549;42.162;24.726;2023-04-29T06:54:40;47565.22;;;-141.97;48.11
7018;BME280;3549;42.162;24.726;2023-04-29T06:57:06;47594.03;;;-141.97;46.51
7018;BME280;3549;42.162;24.726;2023-04-29T06:59:34;47665.16;;;-141.97;45.93
7018;BME280;3549;42.162;24.726;2023-04-29T07:02:00;47549.84;;;-141.97;45.29
7018;BME280;3549;42.162;24.726;2023-04-29T07:04:25;47553.69;;;-141.97;44.95
7018;BME280;3549;42.162;24.726;2023-04-29T07:06:51;47544.06;;;-141.97;45.04
7018;BME280;3549;42.162;24.726;2023-04-29T07:09:18;47684.38;;;-141.97;44.58
7018;BME280;3549;42.162;24.726;2023-04-29T07:11:43;47563.28;;;-141.97;43.99
7018;BME280;3549;42.162;24.726;2023-04-29T07:14:09;47622.88;;;-141.97;43.96
7018;BME280;3549;42.162;24.726;2023-04-29T07:16:34;47486.41;;;-141.97;42.69
7018;BME280;3549;42.162;24.726;2023-04-29T07:18:59;47570.97;;;-141.97;41.48
7018;BME280;3549;42.162;24.726;2023-04-29T07:21:25;47569.06;;;-141.97;41.89
7018;BME280;3549;42.162;24.726;2023-04-29T07:23:51;47557.53;;;-141.97;42.53
7018;BME280;3549;42.162;24.726;2023-04-29T07:26:17;47546.00;;;-141.97;41.89
7018;BME280;3549;42.162;24.726;2023-04-29T07:28:43;47532.53;;;-141.97;41.93
7018;BME280;3549;42.162;24.726;2023-04-29T07:31:09;47511.38;;;-141.97;41.44
7018;BME280;3549;42.162;24.726;2023-04-29T07:33:36;47536.38;;;-141.97;41.49
7018;BME280;3549;42.162;24.726;2023-04-29T07:36:02;47511.38;;;-141.97;41.13
7018;BME280;3549;42.162;24.726;2023-04-29T07:38:28;47461.41;;;-141.97;40.55
7018;BME280;3549;42.162;24.726;2023-04-29T07:40:55;47521.00;;;-141.97;40.49
7018;BME280;3549;42.162;24.726;2023-04-29T07:43:20;47553.69;;;-141.97;39.63
7018;BME280;3549;42.162;24.726;2023-04-29T07:45:46;47546.00;;;-141.97;39.28
7018;BME280;3549;42.162;24.726;2023-04-29T07:48:12;47555.59;;;-141.97;39.38
7018;BME280;3549;42.162;24.726;2023-04-29T07:50:38;47517.16;;;-141.97;39.50
7018;BME280;3549;42.162;24.726;2023-04-29T07:53:03;47557.53;;;-141.97;39.97
7018;BME280;3549;42.162;24.726;2023-04-29T07:55:29;47572.91;;;-141.97;39.84
7018;BME280;3549;42.162;24.726;2023-04-29T07:57:55;47511.38;;;-141.97;40.13
7018;BME280;3549;42.162;24.726;2023-04-29T08:00:21;47515.22;;;-141.97;40.81
7018;BME280;3549;42.162;24.726;2023-04-29T08:02:54;47532.53;;;-141.97;40.11
7018;BME280;3549;42.162;24.726;2023-04-29T08:05:20;47530.59;;;-141.97;40.13
7018;BME280;3549;42.162;24.726;2023-04-29T08:07:47;47580.59;;;-141.97;40.01
7018;BME280;3549;42.162;24.726;2023-04-29T08:10:13;47526.75;;;-141.97;39.56
7018;BME280;3549;42.162;24.726;2023-04-29T08:12:39;47534.44;;;-141.97;38.90
7018;BME280;3549;42.162;24.726;2023-04-29T08:15:05;47544.06;;;-141.97;39.01
7018;BME280;3549;42.162;24.726;2023-04-29T08:17:30;47547.91;;;-141.97;38.70
7018;BME280;3549;42.162;24.726;2023-04-29T08:19:56;47549.84;;;-141.97;37.85
7018;BME280;3549;42.162;24.726;2023-04-29T08:22:21;47553.69;;;-141.97;37.89
7018;BME280;3549;42.162;24.726;2023-04-29T08:24:47;47553.69;;;-141.97;37.71
7018;BME280;3549;42.162;24.726;2023-04-29T08:27:13;47484.47;;;-141.97;37.25
7018;BME280;3549;42.162;24.726;2023-04-29T08:29:42;47509.47;;;-141.97;37.42
7018;BME280;3549;42.162;24.726;2023-04-29T08:32:08;47678.63;;;-141.97;37.82
7018;BME280;3549;42.162;24.726;2023-04-29T08:34:33;47471.03;;;-141.97;37.19
7018;BME280;3549;42.162;24.726;2023-04-29T08:37:01;47524.84;;;-141.97;36.93
7018;BME280;3549;42.162;24.726;2023-04-29T08:39:30;47530.59;;;-141.97;36.88
7018;BME280;3549;42.162;24.726;2023-04-29T08:41:56;47526.75;;;-141.97;36.01
7018;BME280;3549;42.162;24.726;2023-04-29T08:44:21;47517.16;;;-141.97;35.90
7018;BME280;3549;42.162;24.726;2023-04-29T08:46:48;47505.63;;;-141.97;35.58
7018;BME280;3549;42.162;24.726;2023-04-29T08:49:15;47505.63;;;-141.97;35.39
7018;BME280;3549;42.162;24.726;2023-04-29T08:51:40;47505.63;;;-141.97;35.18
7018;BME280;3549;42.162;24.726;2023-04-29T08:54:06;47482.56;;;-141.97;34.09
7018;BME280;3549;42.162;24.726;2023-04-29T08:56:32;47540.22;;;-141.97;34.66
7018;BME280;3549;42.162;24.726;2023-04-29T08:58:58;47461.41;;;-141.97;35.23
7018;BME280;3549;42.162;24.726;2023-04-29T09:01:29;47538.28;;;-141.97;35.68
7018;BME280;3549;42.162;24.726;2023-04-29T09:06:39;47503.69;;;-141.97;35.04
7018;BME280;3549;42.162;24.726;2023-04-29T09:09:05;47501.78;;;-141.97;34.74
7018;BME280;3549;42.162;24.726;2023-04-29T09:11:31;47507.53;;;-141.97;34.83
7018;BME280;3549;42.162;24.726;2023-04-29T09:14:01;47488.31;;;-141.97;35.01
7018;BME280;3549;42.162;24.726;2023-04-29T09:16:27;47534.44;;;-141.97;35.57
7018;BME280;3549;42.162;24.726;2023-04-29T09:18:53;47488.31;;;-141.97;36.02
7018;BME280;3549;42.162;24.726;2023-04-29T09:21:24;47497.94;;;-141.97;36.18
7018;BME280;3549;42.162;24.726;2023-04-29T09:23:51;47542.16;;;-141.97;36.35
7018;BME280;3549;42.162;24.726;2023-04-29T09:26:18;47503.69;;;-141.97;35.96
7018;BME280;3549;42.162;24.726;2023-04-29T09:28:44;47557.53;;;-141.97;35.79
7018;BME280;3549;42.162;24.726;2023-04-29T09:31:12;47486.41;;;-141.97;35.39
7018;BME280;3549;42.162;24.726;2023-04-29T09:33:55;47503.69;;;-141.97;34.82
7018;BME280;3549;42.162;24.726;2023-04-29T09:39:16;47515.22;;;-141.97;34.07
7018;BME280;3549;42.162;24.726;2023-04-29T09:44:27;47669.00;;;-141.97;33.76
7018;BME280;3549;42.162;24.726;2023-04-29T09:47:04;47515.22;;;-141.97;33.58
7018;BME280;3549;42.162;24.726;2023-04-29T09:49:37;47521.00;;;-141.97;33.35
7018;BME280;3549;42.162;24.726;2023-04-29T09:52:26;47538.28;;;-141.97;32.57
7018;BME280;3549;42.162;24.726;2023-04-29T09:55:04;47538.28;;;-141.97;33.38
7018;BME280;3549;42.162;24.726;2023-04-29T09:57:38;47476.78;;;-141.97;33.13
7018;BME280;3549;42.162;24.726;2023-04-29T10:00:05;47453.72;;;-141.97;33.29
7018;BME280;3549;42.162;24.726;2023-04-29T10:02:30;47499.84;;;-141.97;33.09
7018;BME280;3549;42.162;24.726;2023-04-29T10:04:57;47499.84;;;-141.97;32.49
7018;BME280;3549;42.162;24.726;2023-04-29T10:07:24;47542.16;;;-141.97;32.33
7018;BME280;3549;42.162;24.726;2023-04-29T10:09:50;47474.88;;;-141.97;32.13
7018;BME280;3549;42.162;24.726;2023-04-29T10:12:18;47492.16;;;-141.97;31.38
7018;BME280;3549;42.162;24.726;2023-04-29T10:14:54;47482.56;;;-141.97;30.22
7018;BME280;3549;42.162;24.726;2023-04-29T10:17:35;47482.56;;;-141.97;30.40
7018;BME280;3549;42.162;24.726;2023-04-29T10:20:03;47503.69;;;-141.97;31.29
7018;BME280;3549;42.162;24.726;2023-04-29T10:22:51;47519.06;;;-141.97;32.02
7018;BME280;3549;42.162;24.726;2023-04-29T10:25:19;47522.91;;;-141.97;31.30
7018;BME280;3549;42.162;24.726;2023-04-29T10:27:46;47496.00;;;-141.97;30.86
7018;BME280;3549;42.162;24.726;2023-04-29T10:30:17;47532.53;;;-141.97;29.73
7018;BME280;3549;42.162;24.726;2023-04-29T10:32:44;47672.84;;;-141.97;29.82
7018;BME280;3549;42.162;24.726;2023-04-29T10:35:10;47509.47;;;-141.97;29.30
7018;BME280;3549;42.162;24.726;2023-04-29T10:37:38;47538.28;;;-141.97;29.25
7018;BME280;3549;42.162;24.726;2023-04-29T10:40:11;47544.06;;;-141.97;28.59
7018;BME280;3549;42.162;24.726;2023-04-29T10:42:46;47501.78;;;-141.97;29.05
7018;BME280;3549;42.162;24.726;2023-04-29T10:45:29;47472.94;;;-141.97;28.60
7018;BME280;3549;42.162;24.726;2023-04-29T10:50:29;47540.22;;;-141.97;28.40
7018;BME280;3549;42.162;24.726;2023-04-29T10:52:55;47465.25;;;-141.97;27.96
7018;BME280;3549;42.162;24.726;2023-04-29T10:55:22;47522.91;;;-141.97;27.19
7018;BME280;3549;42.162;24.726;2023-04-29T10:57:52;47453.72;;;-141.97;27.14
7018;BME280;3549;42.162;24.726;2023-04-29T11:00:23;47480.63;;;-141.97;27.22
7018;BME280;3549;42.162;24.726;2023-04-29T11:02:52;47367.25;;;-141.97;27.26
7018;BME280;3549;42.162;24.726;2023-04-29T11:05:32;47496.00;;;-141.97;27.35
7018;BME280;3549;42.162;24.726;2023-04-29T11:08:13;47492.16;;;-141.97;27.87
7018;BME280;3549;42.162;24.726;2023-04-29T11:10:47;47434.50;;;-141.97;27.56
7018;BME280;3549;42.162;24.726;2023-04-29T11:13:27;47401.84;;;-141.97;27.50
7018;BME280;3549;42.162;24.726;2023-04-29T11:16:08;47478.72;;;-141.97;27.42
7018;BME280;3549;42.162;24.726;2023-04-29T11:18:34;47515.22;;;-141.97;27.34
7018;BME280;3549;42.162;24.726;2023-04-29T11:23:29;47496.00;;;-141.97;27.12
7018;BME280;3549;42.162;24.726;2023-04-29T11:25:54;47463.34;;;-141.97;27.19
7018;BME280;3549;42.162;24.726;2023-04-29T11:28:22;47471.03;;;-141.97;27.28
7018;BME280;3549;42.162;24.726;2023-04-29T11:30:49;47484.47;;;-141.97;26.95
7018;BME280;3549;42.162;24.726;2023-04-29T11:33:19;47474.88;;;-141.97;26.39
7018;BME280;3549;42.162;24.726;2023-04-29T11:35:44;47453.72;;;-141.97;25.87
7018;BME280;3549;42.162;24.726;2023-04-29T11:38:11;47446.03;;;-141.97;25.39
7018;BME280;3549;42.162;24.726;2023-04-29T11:40:49;47457.56;;;-141.97;25.37
7018;BME280;3549;42.162;24.726;2023-04-29T11:43:18;47451.81;;;-141.97;25.66
7018;BME280;3549;42.162;24.726;2023-04-29T11:45:45;47451.81;;;-141.97;25.37
7018;BME280;3549;42.162;24.726;2023-04-29T11:48:19;47428.75;;;-141.97;25.64
7018;BME280;3549;42.162;24.726;2023-04-29T11:50:46;47394.16;;;-141.97;25.72
7018;BME280;3549;42.162;24.726;2023-04-29T11:53:13;47446.03;;;-141.97;25.23
7018;BME280;3549;42.162;24.726;2023-04-29T11:55:41;47465.25;;;-141.97;25.37
7018;BME280;3549;42.162;24.726;2023-04-29T11:58:07;47576.75;;;-141.97;25.42
7018;BME280;3549;42.162;24.726;2023-04-29T12:00:33;47405.69;;;-141.97;24.65
7018;BME280;3549;42.162;24.726;2023-04-29T12:02:59;47407.59;;;-141.97;24.15
7018;BME280;3549;42.162;24.726;2023-04-29T12:05:25;47432.59;;;-141.97;24.18
7018;BME280;3549;42.162;24.726;2023-04-29T12:07:50;47388.38;;;-141.97;24.39
7018;BME280;3549;42.162;24.726;2023-04-29T12:10:16;47630.56;;;-141.97;24.82
7018;BME280;3549;42.162;24.726;2023-04-29T12:12:42;47430.66;;;-141.97;24.59
7018;BME280;3549;42.162;24.726;2023-04-29T12:15:11;47382.63;;;-141.97;23.81
7018;BME280;3549;42.162;24.726;2023-04-29T12:17:38;47588.28;;;-141.97;23.32
7018;BME280;3549;42.162;24.726;2023-04-29T12:20:05;47340.34;;;-141.97;23.08
7018;BME280;3549;42.162;24.726;2023-04-29T12:22:31;47426.81;;;-141.97;23.17
7018;BME280;3549;42.162;24.726;2023-04-29T12:24:56;47446.03;;;-141.97;24.26
7018;BME280;3549;42.162;24.726;2023-04-29T12:27:22;47442.19;;;-141.97;25.58
7018;BME280;3549;42.162;24.726;2023-04-29T12:29:51;47465.25;;;-141.97;25.65
7018;BME280;3549;42.162;24.726;2023-04-29T12:32:17;47449.88;;;-141.97;25.58
7018;BME280;3549;42.162;24.726;2023-04-29T12:34:46;47488.31;;;-141.97;25.53
7018;BME280;3549;42.162;24.726;2023-04-29T12:37:12;47453.72;;;-141.97;24.96
7018;BME280;3549;42.162;24.726;2023-04-29T12:39:37;47582.50;;;-141.97;24.66
7018;BME280;3549;42.162;24.726;2023-04-29T12:42:03;47659.38;;;-141.97;24.86
7018;BME280;3549;42.162;24.726;2023-04-29T12:44:35;47472.94;;;-141.97;25.09
7018;BME280;3549;42.162;24.726;2023-04-29T12:47:07;47330.72;;;-141.97;24.30
7018;BME280;3549;42.162;24.726;2023-04-29T12:49:35;47303.81;;;-141.97;23.90
7018;BME280;3549;42.162;24.726;2023-04-29T12:52:02;47403.75;;;-141.97;23.96
7018;BME280;3549;42.162;24.726;2023-04-29T12:54:28;47421.06;;;-141.97;23.43
7018;BME280;3549;42.162;24.726;2023-04-29T12:56:54;47417.22;;;-141.97;23.42
7018;BME280;3549;42.162;24.726;2023-04-29T12:59:19;47403.75;;;-141.97;23.16
7018;BME280;3549;42.162;24.726;2023-04-29T13:01:45;47424.91;;;-141.97;23.40
7018;BME280;3549;42.162;24.726;2023-04-29T13:04:10;47361.47;;;-141.97;22.77
7018;BME280;3549;42.162;24.726;2023-04-29T13:06:36;47401.84;;;-141.97;22.62
7018;BME280;3549;42.162;24.726;2023-04-29T13:09:07;47382.63;;;-141.97;23.03
7018;BME280;3549;42.162;24.726;2023-04-29T13:11:36;47563.28;;;-141.97;23.16
7018;BME280;3549;42.162;24.726;2023-04-29T13:14:02;47388.38;;;-141.97;23.52
7018;BME280;3549;42.162;24.726;2023-04-29T13:16:28;47615.19;;;-141.97;24.36
7018;BME280;3549;42.162;24.726;2023-04-29T13:18:53;47324.97;;;-141.97;24.59
7018;BME280;3549;42.162;24.726;2023-04-29T13:21:19;47446.03;;;-141.97;24.68